Time,TemperatureF,DewpointF,PressureIn,WindDirection,WindDirectionDegrees,WindSpeedMPH,WindSpeedGustMPH,Humidity,HourlyPrecipIn,Conditions,Clouds,dailyrainin,SoftwareType,DateUTC
2013-03-08 00:03:00,40.0,-99.9,29.35,SE,140,13.0,26.0,-999,-99.99,,,-99.99,,2013-03-08 09:03:00,
2013-03-08 00:11:00,40.0,-99.9,29.36,SE,145,14.0,25.0,-999,-99.99,,,-99.99,,2013-03-08 09:11:00,
2013-03-08 00:22:00,40.0,-99.9,29.36,SE,143,15.0,26.0,-999,-99.99,,,-99.99,,2013-03-08 09:22:00,
2013-03-08 00:32:00,40.0,-99.9,29.36,SSE,147,13.0,27.0,-999,-99.99,,,-99.99,,2013-03-08 09:32:00,
2013-03-08 00:42:00,40.0,-99.9,29.36,SE,131,9.0,21.0,-999,-99.99,,,-99.99,,2013-03-08 09:42:00,
2013-03-08 00:52:00,40.0,-99.9,29.37,SSE,149,12.0,17.0,-999,-99.99,,,-99.99,,2013-03-08 09:52:00,
2013-03-08 01:01:00,40.0,-99.9,29.37,SE,129,9.0,17.0,-999,-99.99,,,-99.99,,2013-03-08 10:01:00,
2013-03-08 01:11:00,40.0,-99.9,29.37,SE,129,9.0,17.0,-999,-99.99,,,-99.99,,2013-03-08 10:11:00,
2013-03-08 01:21:00,40.0,-99.9,29.38,SE,144,16.0,22.0,-999,-99.99,,,-99.99,,2013-03-08 10:21:00,
2013-03-08 01:32:00,40.0,-99.9,29.39,SSE,147,17.0,24.0,-999,-99.99,,,-99.99,,2013-03-08 10:32:00,
2013-03-08 01:42:00,40.0,-99.9,29.39,SE,146,12.0,27.0,-999,-99.99,,,-99.99,,2013-03-08 10:42:00,
2013-03-08 01:52:00,40.0,-99.9,29.39,SSE,156,10.0,19.0,-999,-99.99,,,-99.99,,2013-03-08 10:52:00,
2013-03-08 02:01:00,40.0,-99.9,29.39,SSE,147,13.0,21.0,-999,-99.99,,,-99.99,,2013-03-08 11:01:00,
2013-03-08 02:11:00,40.0,-99.9,29.39,SSE,150,15.0,25.0,-999,-99.99,,,-99.99,,2013-03-08 11:11:00,
2013-03-08 02:22:00,40.0,-99.9,29.40,SE,131,14.0,26.0,-999,-99.99,,,-99.99,,2013-03-08 11:22:00,
2013-03-08 02:32:00,40.0,-99.9,29.40,SSE,148,12.0,27.0,-999,-99.99,,,-99.99,,2013-03-08 11:32:00,
2013-03-08 02:42:00,40.0,-99.9,29.40,SE,146,12.0,22.0,-999,-99.99,,,-99.99,,2013-03-08 11:42:00,
2013-03-08 02:52:00,40.0,-99.9,29.40,SE,141,14.0,21.0,-999,-99.99,,,-99.99,,2013-03-08 11:52:00,
2013-03-08 03:02:00,39.0,-99.9,29.40,SE,142,12.0,25.0,-999,-99.99,,,-99.99,,2013-03-08 12:02:00,
2013-03-08 03:11:00,40.0,-99.9,29.40,SSE,150,12.0,20.0,-999,-99.99,,,-99.99,,2013-03-08 12:11:00,
2013-03-08 03:22:00,39.0,-99.9,29.40,SSE,151,17.0,28.0,-999,-99.99,,,-99.99,,2013-03-08 12:22:00,
2013-03-08 03:32:00,39.0,-99.9,29.40,SSE,149,14.0,23.0,-999,-99.99,,,-99.99,,2013-03-08 12:32:00,
2013-03-08 03:43:00,40.0,-99.9,29.40,SSE,150,17.0,27.0,-999,-99.99,,,-99.99,,2013-03-08 12:43:00,
2013-03-08 03:53:00,40.0,-99.9,29.40,SSE,150,12.0,20.0,-999,-99.99,,,-99.99,,2013-03-08 12:53:00,
2013-03-08 04:02:00,40.0,-99.9,29.40,SSE,148,14.0,25.0,-999,-99.99,,,-99.99,,2013-03-08 13:02:00,
2013-03-08 04:12:00,39.0,-99.9,29.40,SSE,148,11.0,16.0,-999,-99.99,,,-99.99,,2013-03-08 13:12:00,
2013-03-08 04:22:00,39.0,-99.9,29.40,SSE,148,9.0,17.0,-999,-99.99,,,-99.99,,2013-03-08 13:22:00,
2013-03-08 04:32:00,38.0,-99.9,29.40,SE,144,15.0,27.0,-999,-99.99,,,-99.99,,2013-03-08 13:32:00,
2013-03-08 04:42:00,37.0,-99.9,29.40,SSE,151,9.0,15.0,-999,-99.99,,,-99.99,,2013-03-08 13:42:00,
2013-03-08 04:52:00,38.0,-99.9,29.40,SSE,155,10.0,15.0,-999,-99.99,,,-99.99,,2013-03-08 13:52:00,
2013-03-08 05:03:00,39.0,-99.9,29.40,SE,143,11.0,19.0,-999,-99.99,,,-99.99,,2013-03-08 14:03:00,
2013-03-08 05:12:00,39.0,-99.9,29.39,SE,145,12.0,15.0,-999,-99.99,,,-99.99,,2013-03-08 14:12:00,
2013-03-08 05:22:00,39.0,-99.9,29.39,SE,140,8.0,18.0,-999,-99.99,,,-99.99,,2013-03-08 14:22:00,
2013-03-08 05:33:00,39.0,-99.9,29.39,SSE,149,8.0,12.0,-999,-99.99,,,-99.99,,2013-03-08 14:33:00,
2013-03-08 05:42:00,39.0,-99.9,29.39,SSE,147,11.0,16.0,-999,-99.99,,,-99.99,,2013-03-08 14:42:00,
2013-03-08 05:53:00,39.0,-99.9,29.39,SE,134,7.0,16.0,-999,-99.99,,,-99.99,,2013-03-08 14:53:00,
2013-03-08 06:03:00,39.0,-99.9,29.40,SE,142,6.0,14.0,-999,-99.99,,,-99.99,,2013-03-08 15:03:00,
2013-03-08 06:12:00,39.0,-99.9,29.40,SSE,148,11.0,17.0,-999,-99.99,,,-99.99,,2013-03-08 15:12:00,
2013-03-08 06:22:00,39.0,-99.9,29.40,SE,146,8.0,13.0,-999,-99.99,,,-99.99,,2013-03-08 15:22:00,
2013-03-08 06:32:00,39.0,-99.9,29.41,SSE,148,7.0,14.0,-999,-99.99,,,-99.99,,2013-03-08 15:32:00,
2013-03-08 06:43:00,39.0,-99.9,29.41,SE,146,7.0,15.0,-999,-99.99,,,-99.99,,2013-03-08 15:43:00,
2013-03-08 06:53:00,39.0,-99.9,29.41,SE,140,6.0,15.0,-999,-99.99,,,-99.99,,2013-03-08 15:53:00,
2013-03-08 07:02:00,39.0,-99.9,29.41,SE,130,9.0,14.0,-999,-99.99,,,-99.99,,2013-03-08 16:02:00,
2013-03-08 07:12:00,39.0,-99.9,29.41,ESE,110,5.0,8.0,-999,-99.99,,,-99.99,,2013-03-08 16:12:00,
2013-03-08 07:22:00,39.0,-99.9,29.41,SE,141,5.0,9.0,-999,-99.99,,,-99.99,,2013-03-08 16:22:00,
2013-03-08 07:32:00,39.0,-99.9,29.41,SE,145,7.0,10.0,-999,-99.99,,,-99.99,,2013-03-08 16:32:00,
2013-03-08 07:42:00,39.0,-99.9,29.41,SSE,147,7.0,13.0,-999,-99.99,,,-99.99,,2013-03-08 16:42:00,
2013-03-08 07:52:00,37.0,-99.9,29.41,SE,129,6.0,14.0,-999,-99.99,,,-99.99,,2013-03-08 16:52:00,
2013-03-08 08:03:00,36.0,-99.9,29.42,ESE,108,4.0,6.0,-999,-99.99,,,-99.99,,2013-03-08 17:03:00,
2013-03-08 08:12:00,36.0,-99.9,29.42,SE,145,8.0,14.0,-999,-99.99,,,-99.99,,2013-03-08 17:12:00,
2013-03-08 08:22:00,37.0,-99.9,29.42,SE,142,7.0,19.0,-999,-99.99,,,-99.99,,2013-03-08 17:22:00,
2013-03-08 08:32:00,37.0,-99.9,29.43,SE,143,6.0,10.0,-999,-99.99,,,-99.99,,2013-03-08 17:32:00,
2013-03-08 08:42:00,38.0,-99.9,29.42,SE,133,4.0,18.0,-999,-99.99,,,-99.99,,2013-03-08 17:42:00,
2013-03-08 08:52:00,38.0,-99.9,29.42,SE,137,6.0,9.0,-999,-99.99,,,-99.99,,2013-03-08 17:52:00,
2013-03-08 09:02:00,36.0,-99.9,29.44,SE,146,12.0,23.0,-999,-99.99,,,-99.99,,2013-03-08 18:02:00,
2013-03-08 09:12:00,37.0,-99.9,29.43,SE,145,12.0,18.0,-999,-99.99,,,-99.99,,2013-03-08 18:12:00,
2013-03-08 09:22:00,38.0,-99.9,29.44,SSE,149,10.0,18.0,-999,-99.99,,,-99.99,,2013-03-08 18:22:00,
2013-03-08 09:32:00,38.0,-99.9,29.44,SSE,150,16.0,20.0,-999,-99.99,,,-99.99,,2013-03-08 18:32:00,
2013-03-08 09:42:00,38.0,-99.9,29.44,SSE,150,13.0,18.0,-999,-99.99,,,-99.99,,2013-03-08 18:42:00,
2013-03-08 09:52:00,38.0,-99.9,29.44,SE,144,11.0,15.0,-999,-99.99,,,-99.99,,2013-03-08 18:52:00,
2013-03-08 10:02:00,37.0,-99.9,29.45,SE,146,11.0,23.0,-999,-99.99,,,-99.99,,2013-03-08 19:02:00,
2013-03-08 10:11:00,38.0,-99.9,29.45,SSE,148,10.0,17.0,-999,-99.99,,,-99.99,,2013-03-08 19:11:00,
2013-03-08 10:22:00,38.0,-99.9,29.44,SE,139,6.0,14.0,-999,-99.99,,,-99.99,,2013-03-08 19:22:00,
2013-03-08 10:32:00,38.0,-99.9,29.45,SE,146,9.0,12.0,-999,-99.99,,,-99.99,,2013-03-08 19:32:00,
2013-03-08 10:42:00,38.0,-99.9,29.45,SE,142,6.0,18.0,-999,-99.99,,,-99.99,,2013-03-08 19:42:00,
2013-03-08 10:52:00,37.0,-99.9,29.46,ESE,111,6.0,10.0,-999,-99.99,,,-99.99,,2013-03-08 19:52:00,
2013-03-08 11:02:00,38.0,-99.9,29.45,SSE,149,9.0,18.0,-999,-99.99,,,-99.99,,2013-03-08 20:02:00,
2013-03-08 11:11:00,39.0,-99.9,29.46,SE,137,10.0,15.0,-999,-99.99,,,-99.99,,2013-03-08 20:11:00,
2013-03-08 11:22:00,39.0,-99.9,29.46,SSE,148,13.0,18.0,-999,-99.99,,,-99.99,,2013-03-08 20:22:00,
2013-03-08 11:32:00,39.0,-99.9,29.46,SE,140,8.0,14.0,-999,-99.99,,,-99.99,,2013-03-08 20:32:00,
2013-03-08 11:42:00,36.0,-99.9,29.47,SE,130,14.0,21.0,-999,-99.99,,,-99.99,,2013-03-08 20:42:00,
2013-03-08 11:53:00,37.0,-99.9,29.47,SE,143,9.0,18.0,-999,-99.99,,,-99.99,,2013-03-08 20:53:00,
2013-03-08 12:02:00,37.0,-99.9,29.46,SSE,149,7.0,17.0,-999,-99.99,,,-99.99,,2013-03-08 21:02:00,
2013-03-08 12:12:00,37.0,-99.9,29.47,SSE,150,12.0,17.0,-999,-99.99,,,-99.99,,2013-03-08 21:12:00,
2013-03-08 12:22:00,37.0,-99.9,29.47,SE,132,8.0,13.0,-999,-99.99,,,-99.99,,2013-03-08 21:22:00,
2013-03-08 12:33:00,37.0,-99.9,29.47,SE,134,5.0,13.0,-999,-99.99,,,-99.99,,2013-03-08 21:33:00,
2013-03-08 12:42:00,38.0,-99.9,29.47,SE,135,8.0,14.0,-999,-99.99,,,-99.99,,2013-03-08 21:42:00,
2013-03-08 12:52:00,38.0,-99.9,29.47,SSE,150,15.0,22.0,-999,-99.99,,,-99.99,,2013-03-08 21:52:00,
2013-03-08 13:02:00,37.0,-99.9,29.48,SE,138,13.0,23.0,-999,-99.99,,,-99.99,,2013-03-08 22:02:00,
2013-03-08 13:12:00,37.0,-99.9,29.48,SE,144,13.0,17.0,-999,-99.99,,,-99.99,,2013-03-08 22:12:00,
2013-03-08 13:22:00,37.0,-99.9,29.48,SE,146,13.0,17.0,-999,-99.99,,,-99.99,,2013-03-08 22:22:00,
2013-03-08 13:32:00,37.0,-99.9,29.48,SE,145,10.0,14.0,-999,-99.99,,,-99.99,,2013-03-08 22:32:00,
2013-03-08 13:42:00,37.0,-99.9,29.48,SE,144,9.0,13.0,-999,-99.99,,,-99.99,,2013-03-08 22:42:00,
2013-03-08 13:53:00,35.0,-99.9,29.48,South,171,3.0,8.0,-999,-99.99,,,-99.99,,2013-03-08 22:53:00,
2013-03-08 14:02:00,36.0,-99.9,29.48,SE,138,5.0,11.0,-999,-99.99,,,-99.99,,2013-03-08 23:02:00,
2013-03-08 14:12:00,35.0,-99.9,29.49,SSE,165,8.0,16.0,-999,-99.99,,,-99.99,,2013-03-08 23:12:00,
2013-03-08 14:22:00,35.0,-99.9,29.49,SSE,156,4.0,8.0,-999,-99.99,,,-99.99,,2013-03-08 23:22:00,
2013-03-08 14:32:00,36.0,-99.9,29.48,SSE,160,6.0,11.0,-999,-99.99,,,-99.99,,2013-03-08 23:32:00,
2013-03-08 14:42:00,37.0,-99.9,29.48,South,187,10.0,16.0,-999,-99.99,,,-99.99,,2013-03-08 23:42:00,
2013-03-08 14:53:00,37.0,-99.9,29.48,SE,142,11.0,15.0,-999,-99.99,,,-99.99,,2013-03-08 23:53:00,
2013-03-08 15:02:00,38.0,-99.9,29.49,SSE,148,7.0,12.0,-999,-99.99,,,-99.99,,2013-03-09 00:02:00,
2013-03-08 15:12:00,38.0,-99.9,29.49,SE,142,6.0,10.0,-999,-99.99,,,-99.99,,2013-03-09 00:12:00,
2013-03-08 15:22:00,38.0,-99.9,29.49,SSE,153,8.0,14.0,-999,-99.99,,,-99.99,,2013-03-09 00:22:00,
2013-03-08 15:32:00,38.0,-99.9,29.49,SE,136,8.0,12.0,-999,-99.99,,,-99.99,,2013-03-09 00:32:00,
2013-03-08 15:42:00,39.0,-99.9,29.49,SE,145,8.0,13.0,-999,-99.99,,,-99.99,,2013-03-09 00:42:00,
2013-03-08 15:52:00,39.0,-99.9,29.49,SE,145,9.0,13.0,-999,-99.99,,,-99.99,,2013-03-09 00:52:00,
2013-03-08 16:02:00,39.0,-99.9,29.49,SE,143,12.0,16.0,-999,-99.99,,,-99.99,,2013-03-09 01:02:00,
2013-03-08 16:12:00,39.0,-99.9,29.50,SE,139,11.0,16.0,-999,-99.99,,,-99.99,,2013-03-09 01:12:00,
2013-03-08 16:22:00,38.0,-99.9,29.50,SE,142,9.0,15.0,-999,-99.99,,,-99.99,,2013-03-09 01:22:00,
2013-03-08 16:32:00,37.0,-99.9,29.51,SSE,150,9.0,14.0,-999,-99.99,,,-99.99,,2013-03-09 01:32:00,
2013-03-08 16:42:00,37.0,-99.9,29.51,SSE,159,9.0,13.0,-999,-99.99,,,-99.99,,2013-03-09 01:42:00,
2013-03-08 16:52:00,36.0,-99.9,29.52,SSE,168,12.0,19.0,-999,-99.99,,,-99.99,,2013-03-09 01:52:00,
2013-03-08 17:01:00,37.0,-99.9,29.52,SSE,164,8.0,13.0,-999,-99.99,,,-99.99,,2013-03-09 02:01:00,
2013-03-08 17:11:00,37.0,-99.9,29.52,South,169,6.0,10.0,-999,-99.99,,,-99.99,,2013-03-09 02:11:00,
2013-03-08 17:21:00,38.0,-99.9,29.52,SE,142,9.0,15.0,-999,-99.99,,,-99.99,,2013-03-09 02:21:00,
2013-03-08 17:31:00,37.0,-99.9,29.53,SE,140,8.0,11.0,-999,-99.99,,,-99.99,,2013-03-09 02:31:00,
2013-03-08 17:41:00,35.0,-99.9,29.53,South,187,10.0,12.0,-999,-99.99,,,-99.99,,2013-03-09 02:41:00,
2013-03-08 17:51:00,35.0,-99.9,29.53,SSW,206,4.0,7.0,-999,-99.99,,,-99.99,,2013-03-09 02:51:00,
2013-03-08 18:01:00,35.0,-99.9,29.53,SSW,197,2.0,4.0,-999,-99.99,,,-99.99,,2013-03-09 03:01:00,
2013-03-08 18:11:00,38.0,-99.9,29.53,SSE,148,9.0,14.0,-999,-99.99,,,-99.99,,2013-03-09 03:11:00,
2013-03-08 18:22:00,38.0,-99.9,29.54,SE,144,9.0,16.0,-999,-99.99,,,-99.99,,2013-03-09 03:22:00,
2013-03-08 18:32:00,38.0,-99.9,29.54,SSE,147,14.0,20.0,-999,-99.99,,,-99.99,,2013-03-09 03:32:00,
2013-03-08 18:42:00,36.0,-99.9,29.55,South,169,13.0,17.0,-999,-99.99,,,-99.99,,2013-03-09 03:42:00,
2013-03-08 18:52:00,36.0,-99.9,29.56,South,178,10.0,14.0,-999,-99.99,,,-99.99,,2013-03-09 03:52:00,
2013-03-08 19:01:00,36.0,-99.9,29.56,SSE,161,9.0,13.0,-999,-99.99,,,-99.99,,2013-03-09 04:01:00,
2013-03-08 19:11:00,35.0,-99.9,29.56,South,179,6.0,10.0,-999,-99.99,,,-99.99,,2013-03-09 04:11:00,
2013-03-08 19:22:00,34.0,-99.9,29.57,SSW,194,4.0,7.0,-999,-99.99,,,-99.99,,2013-03-09 04:22:00,
2013-03-08 19:32:00,35.0,-99.9,29.57,ESE,116,1.0,3.0,-999,-99.99,,,-99.99,,2013-03-09 04:32:00,
2013-03-08 19:42:00,35.0,-99.9,29.57,South,177,6.0,9.0,-999,-99.99,,,-99.99,,2013-03-09 04:42:00,
2013-03-08 19:52:00,36.0,-99.9,29.58,SSW,195,4.0,6.0,-999,-99.99,,,-99.99,,2013-03-09 04:52:00,
2013-03-08 20:03:00,36.0,-99.9,29.58,SSE,167,6.0,7.0,-999,-99.99,,,-99.99,,2013-03-09 05:03:00,
2013-03-08 20:12:00,36.0,-99.9,29.59,SSE,153,7.0,10.0,-999,-99.99,,,-99.99,,2013-03-09 05:12:00,
2013-03-08 20:22:00,34.0,-99.9,29.60,SE,145,4.0,9.0,-999,-99.99,,,-99.99,,2013-03-09 05:22:00,
2013-03-08 20:32:00,35.0,-99.9,29.60,SSE,157,4.0,7.0,-999,-99.99,,,-99.99,,2013-03-09 05:32:00,
2013-03-08 20:43:00,35.0,-99.9,29.60,SSE,158,5.0,6.0,-999,-99.99,,,-99.99,,2013-03-09 05:43:00,
2013-03-08 20:53:00,35.0,-99.9,29.60,South,182,3.0,4.0,-999,-99.99,,,-99.99,,2013-03-09 05:53:00,
2013-03-08 21:02:00,35.0,-99.9,29.60,South,176,3.0,4.0,-999,-99.99,,,-99.99,,2013-03-09 06:02:00,
2013-03-08 21:11:00,36.0,-99.9,29.61,South,182,4.0,7.0,-999,-99.99,,,-99.99,,2013-03-09 06:11:00,
2013-03-08 21:22:00,35.0,-99.9,29.61,SE,133,2.0,4.0,-999,-99.99,,,-99.99,,2013-03-09 06:22:00,
2013-03-08 21:32:00,35.0,-99.9,29.61,SE,145,3.0,4.0,-999,-99.99,,,-99.99,,2013-03-09 06:32:00,
2013-03-08 21:42:00,36.0,-99.9,29.62,SSE,163,1.0,3.0,-999,-99.99,,,-99.99,,2013-03-09 06:42:00,
2013-03-08 21:52:00,36.0,-99.9,29.62,ESE,120,4.0,9.0,-999,-99.99,,,-99.99,,2013-03-09 06:52:00,
2013-03-08 22:01:00,36.0,-99.9,29.62,SSE,154,6.0,8.0,-999,-99.99,,,-99.99,,2013-03-09 07:01:00,
2013-03-08 22:11:00,35.0,-99.9,29.63,ESE,119,2.0,4.0,-999,-99.99,,,-99.99,,2013-03-09 07:11:00,
2013-03-08 22:22:00,35.0,-99.9,29.63,ESE,123,4.0,5.0,-999,-99.99,,,-99.99,,2013-03-09 07:22:00,
2013-03-08 22:32:00,35.0,-99.9,29.64,ESE,115,4.0,6.0,-999,-99.99,,,-99.99,,2013-03-09 07:32:00,
2013-03-08 22:42:00,36.0,-99.9,29.64,SSE,150,5.0,6.0,-999,-99.99,,,-99.99,,2013-03-09 07:42:00,
2013-03-08 22:52:00,35.0,-99.9,29.64,SE,142,4.0,6.0,-999,-99.99,,,-99.99,,2013-03-09 07:52:00,
2013-03-08 23:01:00,35.0,-99.9,29.65,SSE,149,4.0,7.0,-999,-99.99,,,-99.99,,2013-03-09 08:01:00,
2013-03-08 23:11:00,35.0,-99.9,29.65,ESE,117,2.0,4.0,-999,-99.99,,,-99.99,,2013-03-09 08:11:00,
2013-03-08 23:22:00,35.0,-99.9,29.66,SE,124,2.0,3.0,-999,-99.99,,,-99.99,,2013-03-09 08:22:00,
2013-03-08 23:32:00,35.0,-99.9,29.66,ESE,115,1.0,2.0,-999,-99.99,,,-99.99,,2013-03-09 08:32:00,
2013-03-08 23:42:00,35.0,-99.9,29.66,SE,124,3.0,4.0,-999,-99.99,,,-99.99,,2013-03-09 08:42:00,
2013-03-08 23:52:00,35.0,-99.9,29.67,East,98,1.0,3.0,-999,-99.99,,,-99.99,,2013-03-09 08:52:00,